Rockville, Missouri
Current Conditions -  °F | °C
As of 1:35 AM on Saturday 20 Dec 2014 (Local Time) from KGLY Reporting Station
Moderate Fog Moderate Fog  
Wind Chill: 37°   Ceiling: 100
Heat Index: 37°   Visibility: 0.25mi
Dew Point: 37°   Wind: 0mph
Humidity: 100%   Direction: NA
Pressure: 30.2"   Gusts: NA
Location:  38.07°N, 94.08°W
Report Text: KGLY 200735Z AUTO 00000KT 1/4SM FG OVC001 03/03 A3020 RMK AO2
Loading
Personal Weather Stations






























Interactive Weather Map New forecast layout! Learn more

10-Day Weather Forecast

Advertisements
Track Severe Weather on mobile